createdAt,value
2018-12-16T00:01:42.469Z,11.10
2018-12-16T00:04:10.260Z,10.43
2018-12-16T00:06:37.796Z,11.43
2018-12-16T00:09:06.186Z,10.20
2018-12-16T00:11:34.012Z,10.27
2018-12-16T00:14:01.921Z,9.93
2018-12-16T00:16:31.767Z,11.10
2018-12-16T00:18:59.388Z,9.93
2018-12-16T00:21:26.998Z,11.20
2018-12-16T00:23:54.602Z,10.83
2018-12-16T00:26:22.221Z,11.27
2018-12-16T00:28:49.726Z,11.30
2018-12-16T00:31:17.428Z,11.00
2018-12-16T00:33:45.122Z,11.70
2018-12-16T00:36:12.912Z,9.90
2018-12-16T00:38:40.539Z,9.93
2018-12-16T00:41:08.108Z,11.00
2018-12-16T00:43:36.279Z,10.13
2018-12-16T00:46:03.987Z,11.17
2018-12-16T00:48:31.496Z,10.37
2018-12-16T00:50:59.440Z,10.47
2018-12-16T00:53:28.112Z,9.80
2018-12-16T00:55:55.907Z,10.47
2018-12-16T00:58:23.563Z,10.50
2018-12-16T01:00:51.261Z,10.33
2018-12-16T01:03:21.612Z,11.53
2018-12-16T01:05:49.726Z,10.67
2018-12-16T01:08:18.066Z,9.57
2018-12-16T01:10:45.754Z,9.80
2018-12-16T01:13:13.330Z,12.23
2018-12-16T01:15:41.459Z,10.00
2018-12-16T01:18:09.006Z,9.67
2018-12-16T01:20:36.597Z,10.07
2018-12-16T01:23:04.212Z,10.67
2018-12-16T01:25:31.757Z,10.50
2018-12-16T01:27:59.194Z,10.10
2018-12-16T01:30:26.892Z,10.03
2018-12-16T01:32:54.477Z,9.57
2018-12-16T01:35:21.972Z,9.43
2018-12-16T01:37:49.573Z,9.63
2018-12-16T01:40:17.101Z,9.33
2018-12-16T01:42:44.657Z,8.90
2018-12-16T01:45:12.109Z,9.70
2018-12-16T01:47:39.535Z,9.27
2018-12-16T01:50:06.962Z,9.17
2018-12-16T01:52:34.477Z,8.30
2018-12-16T01:55:02.103Z,8.53
2018-12-16T01:57:29.560Z,8.70
2018-12-16T01:59:57.060Z,9.43
2018-12-16T02:02:24.579Z,9.07
2018-12-16T02:04:52.066Z,9.00
2018-12-16T02:07:19.633Z,8.10
2018-12-16T02:09:47.228Z,8.50
2018-12-16T02:12:14.786Z,9.17
2018-12-16T02:14:42.285Z,9.43
2018-12-16T02:17:09.793Z,8.83
2018-12-16T02:19:37.364Z,9.73
2018-12-16T02:22:04.809Z,8.93
2018-12-16T02:24:32.264Z,8.20
2018-12-16T02:26:59.803Z,9.13
2018-12-16T02:29:27.248Z,9.03
2018-12-16T02:31:54.736Z,9.03
2018-12-16T02:34:22.263Z,8.17
2018-12-16T02:36:49.758Z,9.60
2018-12-16T02:39:17.218Z,8.73
2018-12-16T02:41:44.812Z,8.30
2018-12-16T02:44:12.276Z,8.00
2018-12-16T02:46:39.805Z,8.00
2018-12-16T02:49:07.406Z,8.50
2018-12-16T02:51:34.870Z,8.33
2018-12-16T02:54:02.345Z,8.30
2018-12-16T02:56:29.808Z,9.00
2018-12-16T02:58:57.296Z,9.17
2018-12-16T03:01:24.832Z,7.77
2018-12-16T03:03:52.556Z,8.53
2018-12-16T03:06:20.682Z,7.93
2018-12-16T03:08:48.283Z,7.93
2018-12-16T03:11:15.745Z,8.27
2018-12-16T03:13:43.252Z,7.67
2018-12-16T03:16:10.868Z,7.90
2018-12-16T03:18:38.279Z,8.17
2018-12-16T03:21:05.716Z,8.17
2018-12-16T03:23:33.147Z,8.70
2018-12-16T03:26:00.663Z,8.07
2018-12-16T03:28:28.204Z,7.70
2018-12-16T03:30:55.869Z,8.50
2018-12-16T03:33:23.720Z,7.87
2018-12-16T03:35:51.329Z,8.30
2018-12-16T03:38:18.841Z,8.47
2018-12-16T03:40:46.367Z,7.23
2018-12-16T03:43:13.873Z,7.67
2018-12-16T03:45:41.428Z,7.40
2018-12-16T03:48:08.945Z,8.23
2018-12-16T03:50:36.378Z,7.50
2018-12-16T03:53:03.848Z,7.77
2018-12-16T03:55:31.589Z,8.30
2018-12-16T03:57:59.065Z,7.87
2018-12-16T04:00:26.547Z,8.23
2018-12-16T04:02:54.093Z,7.37
2018-12-16T04:05:21.625Z,7.83
2018-12-16T04:07:49.141Z,8.80
2018-12-16T04:10:17.714Z,8.03
2018-12-16T04:12:45.121Z,7.27
2018-12-16T04:15:12.588Z,7.50
2018-12-16T04:17:40.149Z,7.40
2018-12-16T04:20:07.690Z,7.23
2018-12-16T04:22:35.198Z,7.93
2018-12-16T04:25:02.940Z,7.33
2018-12-16T04:27:30.443Z,7.43
2018-12-16T04:29:57.899Z,7.10
2018-12-16T04:32:25.373Z,7.77
2018-12-16T04:34:52.907Z,7.87
2018-12-16T04:37:20.648Z,7.17
2018-12-16T04:39:48.266Z,7.07
2018-12-16T04:42:15.706Z,6.87
2018-12-16T04:44:43.293Z,7.57
2018-12-16T04:47:10.874Z,7.23
2018-12-16T04:49:38.449Z,7.63
2018-12-16T04:52:05.919Z,6.97
2018-12-16T04:54:33.459Z,7.50
2018-12-16T04:57:01.915Z,8.33
2018-12-16T04:59:29.469Z,7.60
2018-12-16T05:01:56.934Z,7.67
2018-12-16T05:04:24.498Z,7.73
2018-12-16T05:06:52.059Z,7.30
2018-12-16T05:09:19.601Z,6.73
2018-12-16T05:11:47.302Z,6.97
2018-12-16T05:14:14.862Z,6.93
2018-12-16T05:16:42.419Z,7.43
2018-12-16T05:19:09.972Z,7.70
2018-12-16T05:21:37.409Z,8.00
2018-12-16T05:24:04.983Z,7.20
2018-12-16T05:26:32.413Z,7.40
2018-12-16T05:28:59.834Z,7.90
2018-12-16T05:31:27.222Z,8.43
2018-12-16T05:33:54.723Z,7.93
2018-12-16T05:36:22.223Z,8.30
2018-12-16T05:38:49.799Z,8.30
2018-12-16T05:41:17.338Z,7.30
2018-12-16T05:43:44.836Z,8.37
2018-12-16T05:46:12.313Z,7.37
2018-12-16T05:48:39.776Z,7.27
2018-12-16T05:51:07.304Z,7.23
2018-12-16T05:53:34.788Z,7.17
2018-12-16T05:56:02.261Z,7.83
2018-12-16T05:58:29.756Z,7.80
2018-12-16T06:00:57.315Z,7.30
2018-12-16T06:03:24.838Z,7.87
2018-12-16T06:05:52.319Z,7.20
2018-12-16T06:08:19.890Z,7.40
2018-12-16T06:10:47.373Z,7.37
2018-12-16T06:13:14.810Z,7.23
2018-12-16T06:15:42.346Z,7.57
2018-12-16T06:18:09.849Z,7.67
2018-12-16T06:20:37.354Z,8.03
2018-12-16T06:23:04.791Z,8.17
2018-12-16T06:25:32.289Z,7.50
2018-12-16T06:27:59.736Z,6.80
2018-12-16T06:30:30.232Z,7.80
2018-12-16T06:32:57.723Z,7.43
2018-12-16T06:35:25.253Z,6.60
2018-12-16T06:37:52.733Z,7.03
2018-12-16T06:40:20.247Z,7.03
2018-12-16T06:42:47.757Z,7.60
2018-12-16T06:45:15.262Z,6.77
2018-12-16T06:47:42.743Z,6.93
2018-12-16T06:50:10.263Z,8.43
2018-12-16T06:52:37.769Z,7.97
2018-12-16T06:55:05.301Z,6.77
2018-12-16T06:57:33.057Z,8.40
2018-12-16T07:00:00.587Z,7.00
2018-12-16T07:02:28.001Z,7.27
2018-12-16T07:04:55.452Z,6.60
2018-12-16T07:07:22.860Z,7.13
2018-12-16T07:09:50.318Z,7.70
2018-12-16T07:12:17.806Z,7.63
2018-12-16T07:14:45.467Z,6.67
2018-12-16T07:17:13.130Z,6.57
2018-12-16T07:19:40.677Z,7.37
2018-12-16T07:22:08.217Z,6.70
2018-12-16T07:24:35.717Z,7.03
2018-12-16T07:27:03.195Z,7.17
2018-12-16T07:29:30.750Z,7.33
2018-12-16T07:31:58.314Z,6.97
2018-12-16T07:34:25.810Z,6.50
2018-12-16T07:36:53.308Z,6.93
2018-12-16T07:39:21.014Z,6.57
2018-12-16T07:41:48.687Z,6.90
2018-12-16T07:44:16.310Z,6.30
2018-12-16T07:46:43.798Z,7.20
2018-12-16T07:49:11.365Z,8.23
2018-12-16T07:51:38.941Z,6.93
2018-12-16T07:54:06.480Z,7.50
2018-12-16T07:56:34.001Z,6.90
2018-12-16T07:59:01.475Z,6.77
2018-12-16T08:01:29.113Z,7.10
2018-12-16T08:03:56.931Z,7.43
2018-12-16T08:06:24.442Z,6.40
2018-12-16T08:08:52.076Z,7.40
2018-12-16T08:11:19.580Z,7.60
2018-12-16T08:13:47.120Z,7.03
2018-12-16T08:16:14.668Z,8.40
2018-12-16T08:18:42.228Z,7.23
2018-12-16T08:21:09.753Z,8.17
2018-12-16T08:23:37.529Z,6.97
2018-12-16T08:26:05.118Z,7.67
2018-12-16T08:28:32.605Z,7.07
2018-12-16T08:31:01.021Z,7.70
2018-12-16T08:33:35.292Z,8.13
2018-12-16T08:36:02.866Z,8.33
2018-12-16T08:38:36.908Z,7.03
2018-12-16T08:41:04.546Z,6.93
2018-12-16T08:43:32.135Z,7.80
2018-12-16T08:45:59.624Z,7.20
2018-12-16T08:48:27.339Z,6.97
2018-12-16T08:50:54.952Z,7.47
2018-12-16T08:53:22.656Z,7.03
2018-12-16T08:55:55.144Z,7.53
2018-12-16T08:58:22.785Z,7.23
2018-12-16T09:00:50.328Z,7.47
2018-12-16T09:03:17.931Z,6.70
2018-12-16T09:05:46.018Z,6.83
2018-12-16T09:08:13.942Z,8.03
2018-12-16T09:10:41.572Z,6.80
2018-12-16T09:13:09.160Z,7.40
2018-12-16T09:15:36.978Z,7.00
2018-12-16T09:18:06.670Z,6.20
2018-12-16T09:20:54.967Z,6.80
2018-12-16T09:23:22.526Z,6.63
2018-12-16T09:25:50.002Z,6.73
2018-12-16T09:28:17.644Z,7.50
2018-12-16T09:30:45.394Z,6.30
2018-12-16T09:33:17.597Z,6.57
2018-12-16T09:35:46.321Z,7.27
2018-12-16T09:38:18.941Z,6.97
2018-12-16T09:40:53.304Z,6.70
2018-12-16T09:43:20.925Z,7.10
2018-12-16T09:45:49.560Z,7.43
2018-12-16T09:48:17.310Z,6.90
2018-12-16T09:50:44.843Z,6.70
2018-12-16T09:53:12.363Z,7.73
2018-12-16T09:55:40.117Z,7.43
2018-12-16T09:58:07.701Z,7.27
2018-12-16T10:00:35.279Z,6.53
2018-12-16T10:03:04.940Z,6.93
2018-12-16T10:05:35.635Z,7.27
2018-12-16T10:08:03.412Z,6.40
2018-12-16T10:10:31.062Z,6.93
2018-12-16T10:12:59.021Z,6.80
2018-12-16T10:15:26.971Z,6.67
2018-12-16T10:17:55.320Z,7.23
2018-12-16T10:20:23.171Z,6.90
2018-12-16T10:22:50.751Z,7.43
2018-12-16T10:25:18.277Z,6.73
2018-12-16T10:27:46.004Z,6.63
2018-12-16T10:30:13.627Z,7.10
2018-12-16T10:38:39.629Z,6.80
2018-12-16T10:41:07.138Z,6.83
2018-12-16T10:43:34.662Z,8.23
2018-12-16T10:46:02.159Z,7.67
2018-12-16T10:48:29.750Z,7.10
2018-12-16T10:50:57.388Z,7.13
2018-12-16T10:53:24.897Z,7.63
2018-12-16T10:55:52.509Z,6.87
2018-12-16T10:58:20.022Z,7.33
2018-12-16T11:00:53.104Z,7.27
2018-12-16T11:03:20.675Z,7.50
2018-12-16T11:05:48.279Z,7.37
2018-12-16T11:08:15.783Z,7.63
2018-12-16T11:10:43.346Z,6.97
2018-12-16T11:13:11.034Z,7.37
2018-12-16T11:15:39.700Z,7.90
2018-12-16T11:18:07.358Z,7.83
2018-12-16T11:20:34.867Z,7.93
2018-12-16T11:23:02.508Z,9.63
2018-12-16T11:25:32.756Z,8.60
2018-12-16T11:28:00.357Z,7.40
2018-12-16T11:30:27.968Z,7.70
2018-12-16T11:32:55.821Z,7.93
2018-12-16T11:35:23.481Z,8.40
2018-12-16T11:37:51.039Z,9.33
2018-12-16T11:40:22.210Z,8.27
2018-12-16T11:45:46.323Z,7.90
2018-12-16T11:48:14.111Z,8.23
2018-12-16T11:50:41.759Z,7.53
2018-12-16T11:53:09.377Z,8.03
2018-12-16T11:55:37.020Z,8.37
2018-12-16T11:58:04.661Z,8.83
2018-12-16T12:00:33.001Z,7.50
2018-12-16T12:03:00.663Z,8.60
2018-12-16T12:05:28.289Z,8.23
2018-12-16T12:07:55.830Z,8.13
2018-12-16T12:10:24.681Z,7.90
2018-12-16T12:15:42.187Z,7.87
2018-12-16T12:18:09.683Z,8.60
2018-12-16T12:20:37.177Z,8.10
2018-12-16T12:23:04.775Z,7.83
2018-12-16T12:25:32.290Z,7.87
2018-12-16T12:27:59.847Z,8.00
2018-12-16T12:30:27.524Z,7.70
2018-12-16T12:32:55.203Z,7.07
2018-12-16T12:35:22.883Z,7.43
2018-12-16T12:37:50.443Z,8.67
2018-12-16T12:40:18.069Z,8.90
2018-12-16T12:42:45.638Z,8.40
2018-12-16T12:45:13.273Z,7.10
2018-12-16T12:47:40.749Z,7.70
2018-12-16T12:50:08.448Z,8.33
2018-12-16T12:52:36.007Z,7.30
2018-12-16T12:55:03.697Z,8.83
2018-12-16T12:57:31.395Z,7.80
2018-12-16T12:59:58.938Z,8.23
2018-12-16T13:02:26.365Z,8.23
2018-12-16T13:04:53.940Z,7.53
2018-12-16T13:07:27.625Z,8.53
2018-12-16T13:09:58.808Z,8.47
2018-12-16T13:12:39.509Z,8.07
2018-12-16T13:15:07.369Z,6.90
2018-12-16T13:17:35.001Z,7.23
2018-12-16T13:20:02.877Z,7.70
2018-12-16T13:22:30.511Z,7.37
2018-12-16T13:25:15.028Z,9.20
2018-12-16T13:30:38.368Z,8.10
2018-12-16T13:33:05.949Z,7.87
2018-12-16T13:35:33.562Z,9.00
2018-12-16T13:38:01.208Z,8.30
2018-12-16T13:40:28.914Z,8.80
2018-12-16T13:42:57.147Z,8.13
2018-12-16T13:45:24.645Z,8.17
2018-12-16T13:47:52.203Z,7.73
2018-12-16T13:50:19.717Z,8.60
2018-12-16T13:52:47.301Z,8.40
2018-12-16T13:55:14.893Z,8.57
2018-12-16T13:57:44.483Z,7.20
2018-12-16T14:00:12.619Z,7.53
2018-12-16T14:02:40.409Z,7.37
2018-12-16T14:05:26.386Z,8.03
2018-12-16T14:08:03.844Z,7.70
2018-12-16T14:10:31.398Z,8.53
2018-12-16T14:12:59.028Z,7.47
2018-12-16T14:15:39.407Z,7.07
2018-12-16T14:18:11.389Z,7.17
2018-12-16T14:20:38.909Z,7.00
2018-12-16T14:23:07.488Z,7.03
2018-12-16T14:25:35.228Z,8.70
2018-12-16T14:28:02.788Z,7.87
2018-12-16T14:30:30.296Z,8.80
2018-12-16T14:32:57.918Z,7.87
2018-12-16T14:35:25.842Z,8.43
2018-12-16T14:37:54.142Z,7.50
2018-12-16T14:40:21.788Z,7.70
2018-12-16T14:42:49.440Z,8.63
2018-12-16T14:45:17.024Z,7.43
2018-12-16T14:47:44.753Z,7.77
2018-12-16T14:50:20.671Z,7.53
2018-12-16T14:52:52.173Z,7.30
2018-12-16T14:55:23.052Z,7.67
2018-12-16T14:57:54.032Z,7.87
2018-12-16T15:00:25.285Z,7.43
2018-12-16T15:02:55.321Z,7.60
2018-12-16T15:05:22.782Z,7.60
2018-12-16T15:07:50.234Z,7.57
2018-12-16T15:10:17.644Z,7.03
2018-12-16T15:12:45.115Z,7.50
2018-12-16T15:15:12.691Z,8.20
2018-12-16T15:17:42.854Z,7.40
2018-12-16T15:20:09.828Z,7.80
2018-12-16T15:22:37.285Z,7.30
2018-12-16T15:25:05.405Z,7.03
2018-12-16T15:27:32.833Z,6.13
2018-12-16T15:30:00.263Z,6.13
2018-12-16T15:32:27.715Z,5.97
2018-12-16T15:34:55.218Z,6.90
2018-12-16T15:37:22.846Z,6.53
2018-12-16T15:39:50.281Z,7.40
2018-12-16T15:42:17.720Z,7.03
2018-12-16T15:44:45.131Z,6.57
2018-12-16T15:47:12.545Z,7.63
2018-12-16T15:49:39.949Z,6.10
2018-12-16T15:52:07.393Z,6.77
2018-12-16T15:54:34.833Z,7.20
2018-12-16T15:57:02.283Z,7.23
2018-12-16T15:59:29.718Z,6.43
2018-12-16T16:01:57.200Z,7.23
2018-12-16T16:04:25.142Z,6.83
2018-12-16T16:06:52.565Z,6.93
2018-12-16T16:09:19.996Z,7.23
2018-12-16T16:11:47.394Z,6.40
2018-12-16T16:14:14.858Z,6.20
2018-12-16T16:16:42.332Z,6.10
2018-12-16T16:19:09.862Z,6.53
2018-12-16T16:21:37.315Z,6.17
2018-12-16T16:24:04.765Z,6.27
2018-12-16T16:26:32.214Z,5.23
2018-12-16T16:28:59.680Z,5.30
2018-12-16T16:31:27.114Z,6.30
2018-12-16T16:33:54.771Z,7.03
2018-12-16T16:36:22.223Z,6.07
2018-12-16T16:38:49.636Z,6.90
2018-12-16T16:41:17.072Z,5.53
2018-12-16T16:43:44.491Z,5.93
2018-12-16T16:46:11.940Z,6.10
2018-12-16T16:48:39.458Z,5.97
2018-12-16T16:51:07.044Z,6.07
2018-12-16T16:53:34.522Z,5.60
2018-12-16T16:56:02.016Z,5.80
2018-12-16T16:58:29.478Z,5.30
2018-12-16T17:00:57.318Z,5.50
2018-12-16T17:03:24.870Z,5.73
2018-12-16T17:05:52.284Z,5.03
2018-12-16T17:08:19.866Z,6.27
2018-12-16T17:10:47.327Z,5.80
2018-12-16T17:13:14.734Z,6.10
2018-12-16T17:15:42.263Z,5.73
2018-12-16T17:18:09.720Z,5.20
2018-12-16T17:20:37.499Z,6.83
2018-12-16T17:23:04.951Z,6.57
2018-12-16T17:25:32.384Z,6.33
2018-12-16T17:27:59.836Z,6.77
2018-12-16T17:30:27.303Z,6.77
2018-12-16T17:32:54.758Z,7.20
2018-12-16T17:35:22.297Z,7.83
2018-12-16T17:37:49.808Z,6.57
2018-12-16T17:40:17.285Z,6.40
2018-12-16T17:42:45.408Z,8.00
2018-12-16T17:45:13.037Z,6.37
2018-12-16T17:47:40.506Z,7.00
2018-12-16T17:50:08.666Z,7.30
2018-12-16T17:52:36.106Z,7.23
2018-12-16T17:55:04.705Z,6.47
2018-12-16T17:57:32.176Z,7.63
2018-12-16T18:00:00.504Z,6.83
2018-12-16T18:02:28.193Z,6.73
2018-12-16T18:04:55.715Z,7.17
2018-12-16T18:07:23.157Z,6.77
2018-12-16T18:09:50.555Z,7.80
2018-12-16T18:12:18.019Z,7.53
2018-12-16T18:14:45.483Z,7.00
2018-12-16T18:17:12.958Z,7.30
2018-12-16T18:19:40.418Z,7.57
2018-12-16T18:22:13.877Z,7.27
2018-12-16T18:24:37.384Z,7.33
2018-12-16T18:27:04.876Z,8.13
2018-12-16T18:29:32.287Z,7.93
2018-12-16T18:31:59.758Z,7.80
2018-12-16T18:34:27.152Z,8.80
2018-12-16T18:36:54.575Z,6.90
2018-12-16T18:39:21.996Z,7.57
2018-12-16T18:41:49.709Z,8.17
2018-12-16T18:44:17.128Z,7.00
2018-12-16T18:46:44.784Z,6.93
2018-12-16T18:49:12.240Z,7.30
2018-12-16T18:51:39.691Z,7.53
2018-12-16T18:54:07.161Z,7.23
2018-12-16T18:56:34.637Z,7.43
2018-12-16T18:59:02.681Z,6.47
2018-12-16T19:01:30.142Z,7.73
2018-12-16T19:03:57.621Z,7.17
2018-12-16T19:06:25.077Z,10.10
2018-12-16T19:08:52.485Z,9.10
2018-12-16T19:11:19.981Z,8.43
2018-12-16T19:13:47.450Z,8.73
2018-12-16T19:16:14.958Z,9.53
2018-12-16T19:18:42.572Z,9.33
2018-12-16T19:21:10.260Z,9.13
2018-12-16T19:23:37.864Z,9.50
2018-12-16T19:26:05.326Z,8.67
2018-12-16T19:28:32.801Z,7.60
2018-12-16T19:31:00.272Z,7.80
2018-12-16T19:33:27.853Z,9.23
2018-12-16T19:35:55.312Z,7.57
2018-12-16T19:38:22.933Z,7.27
2018-12-16T19:40:50.489Z,8.03
2018-12-16T19:43:17.917Z,7.47
2018-12-16T19:45:45.335Z,8.50
2018-12-16T19:48:12.834Z,7.33
2018-12-16T19:50:40.280Z,7.87
2018-12-16T19:53:07.835Z,8.63
2018-12-16T19:55:35.506Z,8.23
2018-12-16T19:58:04.890Z,8.50
2018-12-16T20:00:32.691Z,7.67
2018-12-16T20:03:00.463Z,6.53
2018-12-16T20:05:27.984Z,7.30
2018-12-16T20:07:55.533Z,9.00
2018-12-16T20:10:23.073Z,7.20
2018-12-16T20:12:50.540Z,6.87
2018-12-16T20:15:18.021Z,7.03
2018-12-16T20:17:45.548Z,6.50
2018-12-16T20:20:13.216Z,6.40
2018-12-16T20:22:40.701Z,7.60
2018-12-16T20:25:08.259Z,7.30
2018-12-16T20:27:36.020Z,7.33
2018-12-16T20:30:04.612Z,7.13
2018-12-16T20:32:32.069Z,7.80
2018-12-16T20:34:59.930Z,6.83
2018-12-16T20:37:27.417Z,7.33
2018-12-16T20:39:54.900Z,7.00
2018-12-16T20:48:10.761Z,8.13
2018-12-16T20:53:34.653Z,8.17
2018-12-16T20:56:14.559Z,9.00
2018-12-16T20:58:48.004Z,9.80
2018-12-16T21:01:19.309Z,8.03
2018-12-16T21:03:47.704Z,8.47
2018-12-16T21:06:15.413Z,9.00
2018-12-16T21:08:43.206Z,7.90
2018-12-16T21:11:16.554Z,8.07
2018-12-16T21:13:49.937Z,7.97
2018-12-16T21:16:23.214Z,8.57
2018-12-16T21:19:00.952Z,9.00
2018-12-16T21:21:30.042Z,8.60
2018-12-16T21:26:54.674Z,8.80
2018-12-16T21:29:28.483Z,8.83
2018-12-16T21:32:08.712Z,8.73
2018-12-16T21:34:48.310Z,8.03
2018-12-16T21:37:15.895Z,7.33
2018-12-16T21:39:43.587Z,8.00
2018-12-16T21:42:11.392Z,8.77
2018-12-16T21:44:39.026Z,7.63
2018-12-16T21:47:06.660Z,9.27
2018-12-16T21:49:34.193Z,8.77
2018-12-16T21:52:14.107Z,8.13
2018-12-16T21:54:47.622Z,8.67
2018-12-16T21:57:15.857Z,7.23
2018-12-16T21:59:56.611Z,7.97
2018-12-16T22:02:28.293Z,7.57
2018-12-16T22:07:57.037Z,8.23
2018-12-16T22:10:30.903Z,8.00
2018-12-16T22:13:10.857Z,7.57
2018-12-16T22:15:43.183Z,7.53
2018-12-16T22:18:24.340Z,6.87
2018-12-16T22:23:57.667Z,7.13
2018-12-16T22:26:31.374Z,7.23
2018-12-16T22:31:55.235Z,8.30
2018-12-16T22:34:23.197Z,7.10
2018-12-16T22:36:50.889Z,7.30
2018-12-16T22:39:18.457Z,7.83
2018-12-16T22:41:46.017Z,7.87
2018-12-16T22:44:17.539Z,8.53
2018-12-16T22:46:58.084Z,7.43
2018-12-16T22:49:37.959Z,7.97
2018-12-16T22:52:17.753Z,6.87
2018-12-16T22:55:05.302Z,6.27
2018-12-16T23:02:47.004Z,6.77
2018-12-16T23:05:39.211Z,6.77
2018-12-16T23:08:19.834Z,5.97
2018-12-16T23:10:51.974Z,7.57
2018-12-16T23:13:22.926Z,7.23
2018-12-16T23:15:52.449Z,6.70
2018-12-16T23:18:36.768Z,6.33
2018-12-16T23:30:00.789Z,6.00
2018-12-16T23:32:38.291Z,6.27
2018-12-16T23:35:18.302Z,6.43
2018-12-16T23:37:54.335Z,6.10
2018-12-16T23:40:34.093Z,6.03
2018-12-16T23:46:06.200Z,5.83
2018-12-16T23:48:34.008Z,6.20
2018-12-16T23:51:09.168Z,6.17
2018-12-16T23:53:36.723Z,6.57
2018-12-16T23:56:10.458Z,6.37
2018-12-16T23:58:43.749Z,5.70
